sensor_id;sensor_type;location;lat;lon;timestamp;pressure;altitude;pressure_sealevel;temperature;humidity
75447;BME280;64024;55.820;37.574;2023-06-01T00:00:46;98373.16;;;22.11;39.77
75447;BME280;64024;55.820;37.574;2023-06-01T00:03:13;98378.56;;;22.11;39.74
75447;BME280;64024;55.820;37.574;2023-06-01T00:05:39;98378.56;;;22.11;39.62
75447;BME280;64024;55.820;37.574;2023-06-01T00:08:05;98380.47;;;22.11;39.72
75447;BME280;64024;55.820;37.574;2023-06-01T00:10:31;98377.78;;;22.11;39.61
75447;BME280;64024;55.820;37.574;2023-06-01T00:12:58;98374.56;;;22.08;39.63
75447;BME280;64024;55.820;37.574;2023-06-01T00:15:24;98372.97;;;22.07;39.70
75447;BME280;64024;55.820;37.574;2023-06-01T00:17:50;98372.97;;;22.07;39.84
75447;BME280;64024;55.820;37.574;2023-06-01T00:20:17;98372.97;;;22.07;39.73
75447;BME280;64024;55.820;37.574;2023-06-01T00:22:43;98367.22;;;22.09;39.60
75447;BME280;64024;55.820;37.574;2023-06-01T00:25:10;98366.94;;;22.11;39.59
75447;BME280;64024;55.820;37.574;2023-06-01T00:27:36;98375.88;;;22.11;39.61
75447;BME280;64024;55.820;37.574;2023-06-01T00:30:02;98366.94;;;22.11;39.69
75447;BME280;64024;55.820;37.574;2023-06-01T00:32:29;98363.13;;;22.12;39.56
75447;BME280;64024;55.820;37.574;2023-06-01T00:34:55;98364.25;;;22.11;39.67
75447;BME280;64024;55.820;37.574;2023-06-01T00:37:21;98359.91;;;22.09;39.48
75447;BME280;64024;55.820;37.574;2023-06-01T00:39:47;98358.84;;;22.11;39.46
75447;BME280;64024;55.820;37.574;2023-06-01T00:42:13;98359.63;;;22.11;39.49
75447;BME280;64024;55.820;37.574;2023-06-01T00:44:39;98361.53;;;22.11;39.59
75447;BME280;64024;55.820;37.574;2023-06-01T00:47:06;98361.53;;;22.11;39.56
75447;BME280;64024;55.820;37.574;2023-06-01T00:49:33;98364.25;;;22.11;39.50
75447;BME280;64024;55.820;37.574;2023-06-01T00:52:00;98361.53;;;22.11;39.56
75447;BME280;64024;55.820;37.574;2023-06-01T00:54:26;98359.91;;;22.09;39.40
75447;BME280;64024;55.820;37.574;2023-06-01T00:56:53;98358.00;;;22.10;39.83
75447;BME280;64024;55.820;37.574;2023-06-01T00:59:19;98363.41;;;22.10;39.65
75447;BME280;64024;55.820;37.574;2023-06-01T01:01:45;98362.63;;;22.09;39.74
75447;BME280;64024;55.820;37.574;2023-06-01T01:04:12;98359.13;;;22.09;39.77
75447;BME280;64024;55.820;37.574;2023-06-01T01:06:45;98359.63;;;22.11;39.79
75447;BME280;64024;55.820;37.574;2023-06-01T01:09:54;98358.53;;;22.12;39.78
75447;BME280;64024;55.820;37.574;2023-06-01T01:12:26;98357.72;;;22.12;39.92
75447;BME280;64024;55.820;37.574;2023-06-01T01:17:42;98353.41;;;22.11;39.96
75447;BME280;64024;55.820;37.574;2023-06-01T01:20:13;98348.28;;;22.09;39.92
75447;BME280;64024;55.820;37.574;2023-06-01T01:25:20;98353.41;;;22.11;39.79
75447;BME280;64024;55.820;37.574;2023-06-01T01:30:59;98350.91;;;22.14;39.69
75447;BME280;64024;55.820;37.574;2023-06-01T01:33:27;98347.41;;;22.14;39.60
75447;BME280;64024;55.820;37.574;2023-06-01T01:35:55;98345.50;;;22.14;39.62
75447;BME280;64024;55.820;37.574;2023-06-01T01:38:21;98344.69;;;22.14;39.62
75447;BME280;64024;55.820;37.574;2023-06-01T01:40:47;98342.50;;;22.16;39.64
75447;BME280;64024;55.820;37.574;2023-06-01T01:43:15;98329.78;;;22.16;39.73
75447;BME280;64024;55.820;37.574;2023-06-01T01:45:41;98344.09;;;22.17;39.98
75447;BME280;64024;55.820;37.574;2023-06-01T01:48:11;98334.06;;;22.17;39.69
75447;BME280;64024;55.820;37.574;2023-06-01T01:50:50;98340.00;;;22.19;39.61
75447;BME280;64024;55.820;37.574;2023-06-01T01:53:17;98347.00;;;22.20;39.50
75447;BME280;64024;55.820;37.574;2023-06-01T01:55:47;98345.88;;;22.21;39.48
75447;BME280;64024;55.820;37.574;2023-06-01T01:58:14;98349.91;;;22.24;39.46
75447;BME280;64024;55.820;37.574;2023-06-01T02:00:42;98346.06;;;22.25;39.60
75447;BME280;64024;55.820;37.574;2023-06-01T02:03:16;98346.25;;;22.28;39.47
75447;BME280;64024;55.820;37.574;2023-06-01T02:05:43;98342.44;;;22.29;39.44
75447;BME280;64024;55.820;37.574;2023-06-01T02:08:09;98339.94;;;22.33;39.45
75447;BME280;64024;55.820;37.574;2023-06-01T02:10:37;98334.19;;;22.34;39.41
75447;BME280;64024;55.820;37.574;2023-06-01T02:13:03;98333.91;;;22.36;39.11
75447;BME280;64024;55.820;37.574;2023-06-01T02:15:30;98343.31;;;22.39;39.16
75447;BME280;64024;55.820;37.574;2023-06-01T02:17:55;98347.78;;;22.43;39.23
75447;BME280;64024;55.820;37.574;2023-06-01T02:20:22;98350.69;;;22.47;39.20
75447;BME280;64024;55.820;37.574;2023-06-01T02:22:48;98346.59;;;22.49;39.38
75447;BME280;64024;55.820;37.574;2023-06-01T02:25:14;98350.59;;;22.52;39.34
75447;BME280;64024;55.820;37.574;2023-06-01T02:27:41;98344.53;;;22.55;39.24
75447;BME280;64024;55.820;37.574;2023-06-01T02:30:07;98349.66;;;22.56;39.23
75447;BME280;64024;55.820;37.574;2023-06-01T02:32:34;98353.66;;;22.59;38.87
75447;BME280;64024;55.820;37.574;2023-06-01T02:35:00;98350.31;;;22.62;39.08
75447;BME280;64024;55.820;37.574;2023-06-01T02:37:26;98361.63;;;22.64;38.75
75447;BME280;64024;55.820;37.574;2023-06-01T02:39:53;98363.75;;;22.67;38.64
75447;BME280;64024;55.820;37.574;2023-06-01T02:42:19;98363.13;;;22.70;38.65
75447;BME280;64024;55.820;37.574;2023-06-01T02:44:46;98354.38;;;22.73;38.59
75447;BME280;64024;55.820;37.574;2023-06-01T02:47:13;98371.91;;;22.76;38.39
75447;BME280;64024;55.820;37.574;2023-06-01T02:49:39;98365.09;;;22.78;38.50
75447;BME280;64024;55.820;37.574;2023-06-01T02:52:05;98366.41;;;22.81;38.09
75447;BME280;64024;55.820;37.574;2023-06-01T02:54:32;98371.16;;;22.84;38.22
75447;BME280;64024;55.820;37.574;2023-06-01T02:56:58;98367.84;;;22.87;38.13
75447;BME280;64024;55.820;37.574;2023-06-01T02:59:23;98370.78;;;22.91;37.94
75447;BME280;64024;55.820;37.574;2023-06-01T03:01:49;98370.97;;;22.94;37.93
75447;BME280;64024;55.820;37.574;2023-06-01T03:04:16;98366.50;;;22.98;37.98
75447;BME280;64024;55.820;37.574;2023-06-01T03:06:43;98371.28;;;23.01;37.75
75447;BME280;64024;55.820;37.574;2023-06-01T03:09:10;98374.97;;;23.05;37.72
75447;BME280;64024;55.820;37.574;2023-06-01T03:11:40;98377.06;;;23.08;37.66
75447;BME280;64024;55.820;37.574;2023-06-01T03:14:06;98377.25;;;23.12;37.78
75447;BME280;64024;55.820;37.574;2023-06-01T03:16:33;98382.53;;;23.17;37.82
75447;BME280;64024;55.820;37.574;2023-06-01T03:19:00;98379.22;;;23.20;38.01
75447;BME280;64024;55.820;37.574;2023-06-01T03:21:26;98375.09;;;23.23;37.62
75447;BME280;64024;55.820;37.574;2023-06-01T03:23:53;98375.25;;;23.26;37.91
75447;BME280;64024;55.820;37.574;2023-06-01T03:26:19;98368.09;;;23.30;37.77
75447;BME280;64024;55.820;37.574;2023-06-01T03:28:47;98375.59;;;23.33;38.08
75447;BME280;64024;55.820;37.574;2023-06-01T03:31:13;98373.06;;;23.37;37.85
75447;BME280;64024;55.820;37.574;2023-06-01T03:33:39;98373.72;;;23.43;37.80
75447;BME280;64024;55.820;37.574;2023-06-01T03:36:05;98380.44;;;23.45;37.63
75447;BME280;64024;55.820;37.574;2023-06-01T03:38:32;98377.91;;;23.49;37.74
75447;BME280;64024;55.820;37.574;2023-06-01T03:41:00;98377.28;;;23.52;37.71
75447;BME280;64024;55.820;37.574;2023-06-01T03:43:30;98381.25;;;23.54;37.79
75447;BME280;64024;55.820;37.574;2023-06-01T03:45:57;98377.94;;;23.57;37.84
75447;BME280;64024;55.820;37.574;2023-06-01T03:48:23;98376.50;;;23.60;37.78
75447;BME280;64024;55.820;37.574;2023-06-01T03:50:49;98376.66;;;23.64;37.40
75447;BME280;64024;55.820;37.574;2023-06-01T03:53:15;98377.97;;;23.66;37.53
75447;BME280;64024;55.820;37.574;2023-06-01T03:55:41;98370.00;;;23.70;37.74
75447;BME280;64024;55.820;37.574;2023-06-01T03:58:07;98372.56;;;23.75;37.55
75447;BME280;64024;55.820;37.574;2023-06-01T04:00:33;98370.03;;;23.78;37.87
75447;BME280;64024;55.820;37.574;2023-06-01T04:03:00;98367.50;;;23.82;38.23
75447;BME280;64024;55.820;37.574;2023-06-01T04:05:33;98377.38;;;23.87;38.08
75447;BME280;64024;55.820;37.574;2023-06-01T04:08:01;98370.22;;;23.91;38.11
75447;BME280;64024;55.820;37.574;2023-06-01T04:10:27;98370.38;;;23.94;38.08
75447;BME280;64024;55.820;37.574;2023-06-01T04:12:53;98368.13;;;23.96;37.99
75447;BME280;64024;55.820;37.574;2023-06-01T04:15:20;98362.88;;;24.00;37.59
75447;BME280;64024;55.820;37.574;2023-06-01T04:17:47;98366.56;;;24.04;37.89
75447;BME280;64024;55.820;37.574;2023-06-01T04:20:14;98358.56;;;24.08;37.47
75447;BME280;64024;55.820;37.574;2023-06-01T04:22:45;98364.97;;;24.12;37.85
75447;BME280;64024;55.820;37.574;2023-06-01T04:25:13;98364.00;;;24.16;37.57
75447;BME280;64024;55.820;37.574;2023-06-01T04:27:49;98371.69;;;24.23;37.74
75447;BME280;64024;55.820;37.574;2023-06-01T04:30:17;98364.50;;;24.27;37.32
75447;BME280;64024;55.820;37.574;2023-06-01T04:32:43;98366.56;;;24.30;37.37
75447;BME280;64024;55.820;37.574;2023-06-01T04:35:11;98369.13;;;24.35;37.59
75447;BME280;64024;55.820;37.574;2023-06-01T04:37:38;98371.72;;;24.40;37.46
75447;BME280;64024;55.820;37.574;2023-06-01T04:40:09;98371.53;;;24.45;37.43
75447;BME280;64024;55.820;37.574;2023-06-01T04:42:36;98368.66;;;24.50;37.32
75447;BME280;64024;55.820;37.574;2023-06-01T04:45:15;98364.69;;;24.57;37.33
75447;BME280;64024;55.820;37.574;2023-06-01T04:47:41;98357.94;;;24.63;37.23
75447;BME280;64024;55.820;37.574;2023-06-01T04:50:11;98359.38;;;24.69;37.19
75447;BME280;64024;55.820;37.574;2023-06-01T04:52:37;98361.28;;;24.86;37.20
75447;BME280;64024;55.820;37.574;2023-06-01T04:55:04;98359.81;;;24.88;37.04
75447;BME280;64024;55.820;37.574;2023-06-01T04:57:31;98360.75;;;24.92;36.93
75447;BME280;64024;55.820;37.574;2023-06-01T04:59:58;98356.75;;;24.98;37.01
75447;BME280;64024;55.820;37.574;2023-06-01T05:02:25;98359.78;;;25.05;36.97
75447;BME280;64024;55.820;37.574;2023-06-01T05:04:51;98353.97;;;25.24;36.77
75447;BME280;64024;55.820;37.574;2023-06-01T05:07:17;98350.28;;;25.29;36.64
75447;BME280;64024;55.820;37.574;2023-06-01T05:09:44;98352.84;;;25.34;36.52
75447;BME280;64024;55.820;37.574;2023-06-01T05:12:10;98354.38;;;25.44;36.30
75447;BME280;64024;55.820;37.574;2023-06-01T05:14:37;98353.94;;;25.63;36.25
75447;BME280;64024;55.820;37.574;2023-06-01T05:17:04;98363.03;;;25.67;36.04
75447;BME280;64024;55.820;37.574;2023-06-01T05:19:31;98354.38;;;25.73;35.92
75447;BME280;64024;55.820;37.574;2023-06-01T05:21:57;98350.81;;;25.82;35.67
75447;BME280;64024;55.820;37.574;2023-06-01T05:24:23;98351.91;;;25.89;35.67
75447;BME280;64024;55.820;37.574;2023-06-01T05:26:49;98347.19;;;25.98;35.67
75447;BME280;64024;55.820;37.574;2023-06-01T05:29:16;98351.78;;;26.07;35.55
75447;BME280;64024;55.820;37.574;2023-06-01T05:31:43;98348.19;;;26.15;35.57
75447;BME280;64024;55.820;37.574;2023-06-01T05:34:11;98346.19;;;26.24;35.37
75447;BME280;64024;55.820;37.574;2023-06-01T05:36:38;98342.59;;;26.32;35.56
75447;BME280;64024;55.820;37.574;2023-06-01T05:39:05;98343.00;;;26.43;35.10
75447;BME280;64024;55.820;37.574;2023-06-01T05:41:31;98346.47;;;26.52;35.28
75447;BME280;64024;55.820;37.574;2023-06-01T05:43:58;98347.50;;;26.60;35.05
75447;BME280;64024;55.820;37.574;2023-06-01T05:46:24;98349.22;;;26.64;34.94
75447;BME280;64024;55.820;37.574;2023-06-01T05:48:50;98347.09;;;26.70;34.64
75447;BME280;64024;55.820;37.574;2023-06-01T05:51:17;98350.59;;;26.70;34.53
75447;BME280;64024;55.820;37.574;2023-06-01T05:53:44;98349.69;;;26.66;34.64
75447;BME280;64024;55.820;37.574;2023-06-01T05:56:10;98339.81;;;26.74;34.52
75447;BME280;64024;55.820;37.574;2023-06-01T05:58:36;98352.97;;;26.60;34.91
75447;BME280;64024;55.820;37.574;2023-06-01T06:01:02;98343.59;;;26.48;34.97
75447;BME280;64024;55.820;37.574;2023-06-01T06:03:29;98346.38;;;26.40;35.03
75447;BME280;64024;55.820;37.574;2023-06-01T06:05:55;98350.78;;;26.32;34.86
75447;BME280;64024;55.820;37.574;2023-06-01T06:08:21;98348.25;;;26.27;35.09
75447;BME280;64024;55.820;37.574;2023-06-01T06:10:47;98356.28;;;26.23;34.99
75447;BME280;64024;55.820;37.574;2023-06-01T06:13:14;98346.06;;;26.20;35.22
75447;BME280;64024;55.820;37.574;2023-06-01T06:15:41;98354.44;;;26.15;35.09
75447;BME280;64024;55.820;37.574;2023-06-01T06:18:07;98355.91;;;26.13;35.19
75447;BME280;64024;55.820;37.574;2023-06-01T06:20:33;98354.16;;;26.08;35.44
75447;BME280;64024;55.820;37.574;2023-06-01T06:22:59;98361.09;;;26.06;35.55
75447;BME280;64024;55.820;37.574;2023-06-01T06:25:25;98353.13;;;26.00;35.48
75447;BME280;64024;55.820;37.574;2023-06-01T06:27:51;98343.69;;;25.98;35.21
75447;BME280;64024;55.820;37.574;2023-06-01T06:30:18;98342.41;;;25.95;35.55
75447;BME280;64024;55.820;37.574;2023-06-01T06:32:44;98337.63;;;25.92;35.61
75447;BME280;64024;55.820;37.574;2023-06-01T06:35:10;98342.59;;;25.90;35.67
75447;BME280;64024;55.820;37.574;2023-06-01T06:37:41;98338.59;;;25.88;35.63
75447;BME280;64024;55.820;37.574;2023-06-01T06:40:08;98343.59;;;25.86;35.45
75447;BME280;64024;55.820;37.574;2023-06-01T06:42:34;98339.59;;;25.83;35.67
75447;BME280;64024;55.820;37.574;2023-06-01T06:45:00;98335.63;;;25.81;35.24
75447;BME280;64024;55.820;37.574;2023-06-01T06:47:26;98332.13;;;25.80;35.63
75447;BME280;64024;55.820;37.574;2023-06-01T06:49:53;98331.31;;;25.80;35.57
75447;BME280;64024;55.820;37.574;2023-06-01T06:52:20;98328.13;;;25.77;35.54
75447;BME280;64024;55.820;37.574;2023-06-01T06:54:46;98323.78;;;25.76;35.42
75447;BME280;64024;55.820;37.574;2023-06-01T06:57:13;98327.63;;;25.75;35.61
75447;BME280;64024;55.820;37.574;2023-06-01T06:59:38;98322.50;;;25.74;35.33
75447;BME280;64024;55.820;37.574;2023-06-01T07:02:05;98318.53;;;25.71;35.32
75447;BME280;64024;55.820;37.574;2023-06-01T07:04:31;98322.38;;;25.70;35.41
75447;BME280;64024;55.820;37.574;2023-06-01T07:06:58;98312.72;;;25.82;35.36
75447;BME280;64024;55.820;37.574;2023-06-01T07:09:26;98311.63;;;25.74;35.31
75447;BME280;64024;55.820;37.574;2023-06-01T07:11:52;98311.47;;;25.70;35.32
75447;BME280;64024;55.820;37.574;2023-06-01T07:14:18;98302.06;;;25.68;35.49
75447;BME280;64024;55.820;37.574;2023-06-01T07:16:45;98309.75;;;25.66;35.28
75447;BME280;64024;55.820;37.574;2023-06-01T07:19:11;98303.84;;;25.64;35.36
75447;BME280;64024;55.820;37.574;2023-06-01T07:21:38;98301.44;;;25.62;35.41
75447;BME280;64024;55.820;37.574;2023-06-01T07:24:05;98313.13;;;25.63;35.38
75447;BME280;64024;55.820;37.574;2023-06-01T07:26:30;98307.69;;;25.63;35.22
75447;BME280;64024;55.820;37.574;2023-06-01T07:28:56;98302.91;;;25.60;35.27
75447;BME280;64024;55.820;37.574;2023-06-01T07:31:26;98296.34;;;25.61;36.11
75447;BME280;64024;55.820;37.574;2023-06-01T07:33:53;98293.63;;;25.61;36.21
75447;BME280;64024;55.820;37.574;2023-06-01T07:36:23;98296.34;;;25.61;36.13
75447;BME280;64024;55.820;37.574;2023-06-01T07:38:49;98292.50;;;25.62;35.89
75447;BME280;64024;55.820;37.574;2023-06-01T07:41:16;98282.41;;;25.62;35.91
75447;BME280;64024;55.820;37.574;2023-06-01T07:43:43;98283.19;;;25.63;36.01
75447;BME280;64024;55.820;37.574;2023-06-01T07:46:09;98290.56;;;25.62;35.74
75447;BME280;64024;55.820;37.574;2023-06-01T07:48:36;98284.81;;;25.64;35.69
75447;BME280;64024;55.820;37.574;2023-06-01T07:51:05;98279.38;;;25.64;35.61
75447;BME280;64024;55.820;37.574;2023-06-01T07:53:32;98290.25;;;25.64;35.51
75447;BME280;64024;55.820;37.574;2023-06-01T07:55:58;98280.94;;;25.65;35.69
75447;BME280;64024;55.820;37.574;2023-06-01T07:58:25;98273.91;;;25.64;35.45
75447;BME280;64024;55.820;37.574;2023-06-01T08:00:52;98270.06;;;25.65;35.13
75447;BME280;64024;55.820;37.574;2023-06-01T08:03:18;98276.66;;;25.64;35.23
75447;BME280;64024;55.820;37.574;2023-06-01T08:05:46;98287.53;;;25.64;35.25
75447;BME280;64024;55.820;37.574;2023-06-01T08:08:12;98282.53;;;25.66;34.82
75447;BME280;64024;55.820;37.574;2023-06-01T08:10:40;98270.53;;;25.67;34.23
75447;BME280;64024;55.820;37.574;2023-06-01T08:13:05;98272.44;;;25.66;34.09
75447;BME280;64024;55.820;37.574;2023-06-01T08:15:32;98267.00;;;25.66;33.88
75447;BME280;64024;55.820;37.574;2023-06-01T08:17:59;98272.78;;;25.65;33.56
75447;BME280;64024;55.820;37.574;2023-06-01T08:20:25;98274.72;;;25.64;33.26
75447;BME280;64024;55.820;37.574;2023-06-01T08:22:52;98268.47;;;25.64;33.16
75447;BME280;64024;55.820;37.574;2023-06-01T08:25:18;98278.22;;;25.65;33.10
75447;BME280;64024;55.820;37.574;2023-06-01T08:27:45;98268.25;;;25.77;32.79
75447;BME280;64024;55.820;37.574;2023-06-01T08:30:11;98268.41;;;25.72;32.63
75447;BME280;64024;55.820;37.574;2023-06-01T08:32:38;98260.13;;;25.69;32.71
75447;BME280;64024;55.820;37.574;2023-06-01T08:35:06;98251.16;;;25.68;32.58
75447;BME280;64024;55.820;37.574;2023-06-01T08:37:34;98255.00;;;25.67;32.32
75447;BME280;64024;55.820;37.574;2023-06-01T08:40:00;98252.59;;;25.66;32.36
75447;BME280;64024;55.820;37.574;2023-06-01T08:42:34;98251.47;;;25.67;32.40
75447;BME280;64024;55.820;37.574;2023-06-01T08:45:04;98243.31;;;25.67;32.53
75447;BME280;64024;55.820;37.574;2023-06-01T08:47:31;98252.59;;;25.66;32.55
75447;BME280;64024;55.820;37.574;2023-06-01T08:50:00;98246.47;;;25.77;32.41
75447;BME280;64024;55.820;37.574;2023-06-01T08:52:29;98241.50;;;25.71;32.08
75447;BME280;64024;55.820;37.574;2023-06-01T08:55:00;98245.22;;;25.66;31.74
75447;BME280;64024;55.820;37.574;2023-06-01T08:57:31;98246.72;;;25.64;31.83
75447;BME280;64024;55.820;37.574;2023-06-01T08:59:58;98247.03;;;25.62;31.66
75447;BME280;64024;55.820;37.574;2023-06-01T09:02:27;98240.00;;;25.61;31.42
75447;BME280;64024;55.820;37.574;2023-06-01T09:04:53;98240.00;;;25.61;31.47
75447;BME280;64024;55.820;37.574;2023-06-01T09:07:20;98250.09;;;25.61;31.13
75447;BME280;64024;55.820;37.574;2023-06-01T09:09:46;98245.78;;;25.60;31.31
75447;BME280;64024;55.820;37.574;2023-06-01T09:12:21;98246.88;;;25.59;31.05
75447;BME280;64024;55.820;37.574;2023-06-01T09:14:48;98225.13;;;25.59;31.21
75447;BME280;64024;55.820;37.574;2023-06-01T09:17:20;98237.94;;;25.58;31.17
75447;BME280;64024;55.820;37.574;2023-06-01T09:19:49;98241.44;;;25.59;30.98
75447;BME280;64024;55.820;37.574;2023-06-01T09:22:15;98244.50;;;25.57;30.85
75447;BME280;64024;55.820;37.574;2023-06-01T09:24:55;98232.19;;;25.60;30.71
75447;BME280;64024;55.820;37.574;2023-06-01T09:27:22;98235.69;;;25.60;30.92
75447;BME280;64024;55.820;37.574;2023-06-01T09:29:58;98239.53;;;25.59;30.21
75447;BME280;64024;55.820;37.574;2023-06-01T09:32:26;98237.13;;;25.58;30.52
75447;BME280;64024;55.820;37.574;2023-06-01T09:34:53;98242.59;;;25.58;30.41
75447;BME280;64024;55.820;37.574;2023-06-01T09:37:20;98230.91;;;25.57;30.26
75447;BME280;64024;55.820;37.574;2023-06-01T09:39:47;98236.69;;;25.56;29.98
75447;BME280;64024;55.820;37.574;2023-06-01T09:42:13;98229.63;;;25.54;29.93
75447;BME280;64024;55.820;37.574;2023-06-01T09:44:41;98236.22;;;25.53;29.84
75447;BME280;64024;55.820;37.574;2023-06-01T09:47:09;98229.97;;;25.53;29.65
75447;BME280;64024;55.820;37.574;2023-06-01T09:54:32;98235.28;;;25.49;29.60
75447;BME280;64024;55.820;37.574;2023-06-01T09:57:01;98220.88;;;25.49;29.52
75447;BME280;64024;55.820;37.574;2023-06-01T09:59:29;98222.81;;;25.48;29.49
75447;BME280;64024;55.820;37.574;2023-06-01T10:01:57;98227.44;;;25.48;29.46
75447;BME280;64024;55.820;37.574;2023-06-01T10:04:28;98218.81;;;25.46;29.25
75447;BME280;64024;55.820;37.574;2023-06-01T10:06:55;98221.88;;;25.44;29.24
75447;BME280;64024;55.820;37.574;2023-06-01T10:09:24;98230.03;;;25.44;29.01
75447;BME280;64024;55.820;37.574;2023-06-01T10:11:54;98220.28;;;25.43;29.07
75447;BME280;64024;55.820;37.574;2023-06-01T10:14:22;98219.50;;;25.43;29.00
75447;BME280;64024;55.820;37.574;2023-06-01T10:16:53;98221.09;;;25.44;28.81
75447;BME280;64024;55.820;37.574;2023-06-01T10:19:20;98230.38;;;25.43;29.07
75447;BME280;64024;55.820;37.574;2023-06-01T10:21:47;98219.50;;;25.43;28.93
75447;BME280;64024;55.820;37.574;2023-06-01T10:24:14;98221.47;;;25.54;29.04
75447;BME280;64024;55.820;37.574;2023-06-01T10:27:10;98222.16;;;25.51;28.86
75447;BME280;64024;55.820;37.574;2023-06-01T10:29:37;98216.56;;;25.48;29.01
75447;BME280;64024;55.820;37.574;2023-06-01T10:32:03;98225.38;;;25.45;28.53
75447;BME280;64024;55.820;37.574;2023-06-01T10:34:41;98228.09;;;25.45;28.44
75447;BME280;64024;55.820;37.574;2023-06-01T10:39:34;98215.97;;;25.42;28.47
75447;BME280;64024;55.820;37.574;2023-06-01T10:47:19;98220.94;;;25.40;28.31
75447;BME280;64024;55.820;37.574;2023-06-01T10:52:34;98221.72;;;25.41;28.31
75447;BME280;64024;55.820;37.574;2023-06-01T10:57:41;98216.63;;;25.39;28.13
75447;BME280;64024;55.820;37.574;2023-06-01T11:08:00;98220.50;;;25.38;28.41
75447;BME280;64024;55.820;37.574;2023-06-01T11:18:52;98213.56;;;25.41;28.49
75447;BME280;64024;55.820;37.574;2023-06-01T11:21:25;98199.19;;;25.40;28.31
75447;BME280;64024;55.820;37.574;2023-06-01T11:23:53;98212.00;;;25.40;28.69
75447;BME280;64024;55.820;37.574;2023-06-01T11:26:22;98200.75;;;25.41;28.62
75447;BME280;64024;55.820;37.574;2023-06-01T11:28:52;98208.94;;;25.41;28.75
75447;BME280;64024;55.820;37.574;2023-06-01T11:31:19;98193.09;;;25.43;28.46
75447;BME280;64024;55.820;37.574;2023-06-01T11:33:50;98203.31;;;25.46;28.49
75447;BME280;64024;55.820;37.574;2023-06-01T11:36:24;98200.59;;;25.46;28.74
75447;BME280;64024;55.820;37.574;2023-06-01T11:38:51;98202.19;;;25.47;28.86
75447;BME280;64024;55.820;37.574;2023-06-01T11:41:19;98194.47;;;25.49;28.46
75447;BME280;64024;55.820;37.574;2023-06-01T11:43:56;98201.50;;;25.50;28.25
75447;BME280;64024;55.820;37.574;2023-06-01T11:46:23;98198.78;;;25.50;28.23
75447;BME280;64024;55.820;37.574;2023-06-01T11:48:59;98196.81;;;25.60;28.41
75447;BME280;64024;55.820;37.574;2023-06-01T11:51:36;98198.59;;;25.56;28.14
75447;BME280;64024;55.820;37.574;2023-06-01T11:54:04;98197.31;;;25.53;28.26
75447;BME280;64024;55.820;37.574;2023-06-01T11:56:33;98198.13;;;25.53;28.17
75447;BME280;64024;55.820;37.574;2023-06-01T11:59:01;98198.13;;;25.53;28.21
75447;BME280;64024;55.820;37.574;2023-06-01T12:01:29;98191.53;;;25.54;28.19
75447;BME280;64024;55.820;37.574;2023-06-01T12:03:56;98192.81;;;25.57;28.37
75447;BME280;64024;55.820;37.574;2023-06-01T12:06:23;98199.53;;;25.60;28.45
75447;BME280;64024;55.820;37.574;2023-06-01T12:08:54;98198.84;;;25.63;28.53
75447;BME280;64024;55.820;37.574;2023-06-01T12:11:25;98198.97;;;25.66;28.43
75447;BME280;64024;55.820;37.574;2023-06-01T12:13:55;98194.47;;;25.70;28.29
75447;BME280;64024;55.820;37.574;2023-06-01T12:16:22;98195.72;;;25.73;28.19
75447;BME280;64024;55.820;37.574;2023-06-01T12:18:49;98190.72;;;25.75;28.24
75447;BME280;64024;55.820;37.574;2023-06-01T12:21:15;98189.63;;;25.76;28.41
75447;BME280;64024;55.820;37.574;2023-06-01T12:23:48;98195.53;;;25.78;28.60
75447;BME280;64024;55.820;37.574;2023-06-01T12:26:16;98209.94;;;25.78;28.54
75447;BME280;64024;55.820;37.574;2023-06-01T12:28:51;98203.41;;;25.80;28.11
75447;BME280;64024;55.820;37.574;2023-06-01T12:31:20;98205.31;;;25.79;28.18
75447;BME280;64024;55.820;37.574;2023-06-01T12:33:47;98197.13;;;25.79;28.24
75447;BME280;64024;55.820;37.574;2023-06-01T12:36:34;98200.00;;;25.83;28.33
75447;BME280;64024;55.820;37.574;2023-06-01T12:39:03;98205.44;;;25.83;28.18
75447;BME280;64024;55.820;37.574;2023-06-01T12:41:30;98200.78;;;25.83;28.15
75447;BME280;64024;55.820;37.574;2023-06-01T12:43:57;98194.22;;;25.84;28.15
75447;BME280;64024;55.820;37.574;2023-06-01T12:46:25;98180.28;;;25.86;28.10
75447;BME280;64024;55.820;37.574;2023-06-01T12:49:14;98183.91;;;25.90;28.04
75447;BME280;64024;55.820;37.574;2023-06-01T12:51:43;98175.75;;;25.90;28.06
75447;BME280;64024;55.820;37.574;2023-06-01T12:54:09;98188.56;;;25.89;27.97
75447;BME280;64024;55.820;37.574;2023-06-01T12:56:35;98178.47;;;25.90;28.05
75447;BME280;64024;55.820;37.574;2023-06-01T12:59:01;98189.38;;;25.90;27.99
75447;BME280;64024;55.820;37.574;2023-06-01T13:01:27;98185.50;;;25.91;28.13
75447;BME280;64024;55.820;37.574;2023-06-01T13:03:53;98192.53;;;25.92;28.06
75447;BME280;64024;55.820;37.574;2023-06-01T13:06:21;98191.44;;;25.93;28.18
75447;BME280;64024;55.820;37.574;2023-06-01T13:08:47;98180.19;;;25.94;28.11
75447;BME280;64024;55.820;37.574;2023-06-01T13:11:13;98184.50;;;25.95;28.15
75447;BME280;64024;55.820;37.574;2023-06-01T13:13:39;98188.00;;;25.96;28.01
75447;BME280;64024;55.820;37.574;2023-06-01T13:16:06;98186.56;;;25.98;28.36
75447;BME280;64024;55.820;37.574;2023-06-01T13:18:33;98185.09;;;26.01;28.31
75447;BME280;64024;55.820;37.574;2023-06-01T13:20:59;98181.69;;;26.04;28.48
75447;BME280;64024;55.820;37.574;2023-06-01T13:23:25;98184.53;;;26.08;28.32
75447;BME280;64024;55.820;37.574;2023-06-01T13:25:52;98184.66;;;26.11;28.60
75447;BME280;64024;55.820;37.574;2023-06-01T13:28:19;98187.06;;;26.13;28.91
75447;BME280;64024;55.820;37.574;2023-06-01T13:30:45;98188.31;;;26.15;29.25
75447;BME280;64024;55.820;37.574;2023-06-01T13:33:11;98187.97;;;26.17;28.65
75447;BME280;64024;55.820;37.574;2023-06-01T13:35:37;98188.78;;;26.17;28.52